sensor_id;sensor_type;location;lat;lon;timestamp;temperature;humidity
14755;DHT22;7469;50.906;6.952;2023-01-28T00:01:44;3.70;99.90
14755;DHT22;7469;50.906;6.952;2023-01-28T00:04:12;3.70;99.90
14755;DHT22;7469;50.906;6.952;2023-01-28T00:06:40;3.60;99.90
14755;DHT22;7469;50.906;6.952;2023-01-28T00:09:08;3.60;99.90
14755;DHT22;7469;50.906;6.952;2023-01-28T00:11:37;3.60;99.90
14755;DHT22;7469;50.906;6.952;2023-01-28T00:14:05;3.60;99.90
14755;DHT22;7469;50.906;6.952;2023-01-28T00:16:35;3.50;99.90
14755;DHT22;7469;50.906;6.952;2023-01-28T00:19:03;3.50;99.90
14755;DHT22;7469;50.906;6.952;2023-01-28T00:21:31;3.40;99.90
14755;DHT22;7469;50.906;6.952;2023-01-28T00:23:59;3.40;99.90
14755;DHT22;7469;50.906;6.952;2023-01-28T00:26:29;3.30;99.90
14755;DHT22;7469;50.906;6.952;2023-01-28T00:28:57;3.20;99.90
14755;DHT22;7469;50.906;6.952;2023-01-28T00:31:26;3.20;99.90
14755;DHT22;7469;50.906;6.952;2023-01-28T00:33:56;3.10;99.90
14755;DHT22;7469;50.906;6.952;2023-01-28T00:36:25;3.10;99.90
14755;DHT22;7469;50.906;6.952;2023-01-28T00:38:54;3.00;99.90
14755;DHT22;7469;50.906;6.952;2023-01-28T00:41:24;3.00;99.90
14755;DHT22;7469;50.906;6.952;2023-01-28T00:43:52;2.90;99.90
14755;DHT22;7469;50.906;6.952;2023-01-28T00:46:21;2.90;99.90
14755;DHT22;7469;50.906;6.952;2023-01-28T00:48:54;2.90;99.90
14755;DHT22;7469;50.906;6.952;2023-01-28T00:51:22;2.90;99.90
14755;DHT22;7469;50.906;6.952;2023-01-28T00:53:50;2.90;99.90
14755;DHT22;7469;50.906;6.952;2023-01-28T00:56:18;2.90;99.90
14755;DHT22;7469;50.906;6.952;2023-01-28T00:58:46;2.90;99.90
14755;DHT22;7469;50.906;6.952;2023-01-28T01:01:16;2.90;99.90
14755;DHT22;7469;50.906;6.952;2023-01-28T01:03:46;2.90;99.90
14755;DHT22;7469;50.906;6.952;2023-01-28T01:06:23;2.90;99.90
14755;DHT22;7469;50.906;6.952;2023-01-28T01:08:51;2.90;99.90
14755;DHT22;7469;50.906;6.952;2023-01-28T01:11:19;3.00;99.90
14755;DHT22;7469;50.906;6.952;2023-01-28T01:13:51;3.00;99.90
14755;DHT22;7469;50.906;6.952;2023-01-28T01:16:22;3.00;99.90
14755;DHT22;7469;50.906;6.952;2023-01-28T01:18:51;3.00;99.90
14755;DHT22;7469;50.906;6.952;2023-01-28T01:21:23;3.00;99.90
14755;DHT22;7469;50.906;6.952;2023-01-28T01:23:51;3.00;99.90
14755;DHT22;7469;50.906;6.952;2023-01-28T01:26:20;2.90;99.90
14755;DHT22;7469;50.906;6.952;2023-01-28T01:28:49;2.90;99.90
14755;DHT22;7469;50.906;6.952;2023-01-28T01:31:19;2.90;99.90
14755;DHT22;7469;50.906;6.952;2023-01-28T01:33:49;2.80;99.90
14755;DHT22;7469;50.906;6.952;2023-01-28T01:36:18;2.70;99.90
14755;DHT22;7469;50.906;6.952;2023-01-28T01:38:52;2.60;99.90
14755;DHT22;7469;50.906;6.952;2023-01-28T01:41:29;2.60;99.90
14755;DHT22;7469;50.906;6.952;2023-01-28T01:43:59;2.50;99.90
14755;DHT22;7469;50.906;6.952;2023-01-28T01:46:35;2.50;99.90
14755;DHT22;7469;50.906;6.952;2023-01-28T01:49:11;2.50;99.90
14755;DHT22;7469;50.906;6.952;2023-01-28T01:51:41;2.40;99.90
14755;DHT22;7469;50.906;6.952;2023-01-28T01:54:15;2.40;99.90
14755;DHT22;7469;50.906;6.952;2023-01-28T01:56:46;2.30;99.90
14755;DHT22;7469;50.906;6.952;2023-01-28T01:59:20;2.30;99.90
14755;DHT22;7469;50.906;6.952;2023-01-28T02:01:49;2.20;99.90
14755;DHT22;7469;50.906;6.952;2023-01-28T02:04:19;2.20;99.90
14755;DHT22;7469;50.906;6.952;2023-01-28T02:06:49;2.20;99.90
14755;DHT22;7469;50.906;6.952;2023-01-28T02:09:23;2.10;99.90
14755;DHT22;7469;50.906;6.952;2023-01-28T02:11:53;2.10;99.90
14755;DHT22;7469;50.906;6.952;2023-01-28T02:14:26;2.10;99.90
14755;DHT22;7469;50.906;6.952;2023-01-28T02:16:58;2.00;99.90
14755;DHT22;7469;50.906;6.952;2023-01-28T02:19:32;2.00;99.90
14755;DHT22;7469;50.906;6.952;2023-01-28T02:22:10;1.90;99.90
14755;DHT22;7469;50.906;6.952;2023-01-28T02:25:12;1.90;99.90
14755;DHT22;7469;50.906;6.952;2023-01-28T02:28:08;1.90;99.90
14755;DHT22;7469;50.906;6.952;2023-01-28T02:30:50;1.90;99.90
14755;DHT22;7469;50.906;6.952;2023-01-28T02:33:28;1.80;99.90
14755;DHT22;7469;50.906;6.952;2023-01-28T02:36:04;1.80;99.90
14755;DHT22;7469;50.906;6.952;2023-01-28T02:38:38;1.80;99.90
14755;DHT22;7469;50.906;6.952;2023-01-28T02:41:14;1.80;99.90
14755;DHT22;7469;50.906;6.952;2023-01-28T02:43:46;1.70;99.90
14755;DHT22;7469;50.906;6.952;2023-01-28T02:46:20;1.70;99.90
14755;DHT22;7469;50.906;6.952;2023-01-28T02:49:09;1.60;99.90
14755;DHT22;7469;50.906;6.952;2023-01-28T02:54:44;1.60;99.90
14755;DHT22;7469;50.906;6.952;2023-01-28T02:57:28;1.60;99.90
14755;DHT22;7469;50.906;6.952;2023-01-28T03:00:02;1.50;99.90
14755;DHT22;7469;50.906;6.952;2023-01-28T03:02:36;1.50;99.90
14755;DHT22;7469;50.906;6.952;2023-01-28T03:05:12;1.50;99.90
14755;DHT22;7469;50.906;6.952;2023-01-28T03:07:42;1.50;99.90
14755;DHT22;7469;50.906;6.952;2023-01-28T03:10:14;1.50;99.90
14755;DHT22;7469;50.906;6.952;2023-01-28T03:12:44;1.50;99.90
14755;DHT22;7469;50.906;6.952;2023-01-28T03:15:36;1.50;99.90
14755;DHT22;7469;50.906;6.952;2023-01-28T03:18:27;1.40;99.90
14755;DHT22;7469;50.906;6.952;2023-01-28T03:21:18;1.40;99.90
14755;DHT22;7469;50.906;6.952;2023-01-28T03:24:08;1.40;99.90
14755;DHT22;7469;50.906;6.952;2023-01-28T03:26:59;1.40;99.90
14755;DHT22;7469;50.906;6.952;2023-01-28T03:29:47;1.40;99.90
14755;DHT22;7469;50.906;6.952;2023-01-28T03:32:35;1.40;99.90
14755;DHT22;7469;50.906;6.952;2023-01-28T03:35:22;1.40;99.90
14755;DHT22;7469;50.906;6.952;2023-01-28T03:38:09;1.40;99.90
14755;DHT22;7469;50.906;6.952;2023-01-28T03:40:50;1.50;99.90
14755;DHT22;7469;50.906;6.952;2023-01-28T03:43:19;1.50;99.90
14755;DHT22;7469;50.906;6.952;2023-01-28T03:45:47;1.50;99.90
14755;DHT22;7469;50.906;6.952;2023-01-28T03:48:19;1.60;99.90
14755;DHT22;7469;50.906;6.952;2023-01-28T03:50:47;1.60;99.90
14755;DHT22;7469;50.906;6.952;2023-01-28T03:53:16;1.60;99.90
14755;DHT22;7469;50.906;6.952;2023-01-28T03:55:46;1.70;99.90
14755;DHT22;7469;50.906;6.952;2023-01-28T03:58:15;1.70;99.90
14755;DHT22;7469;50.906;6.952;2023-01-28T04:00:43;1.80;99.90
14755;DHT22;7469;50.906;6.952;2023-01-28T04:03:13;1.90;99.90
14755;DHT22;7469;50.906;6.952;2023-01-28T04:05:45;1.90;99.90
14755;DHT22;7469;50.906;6.952;2023-01-28T04:08:14;1.90;99.90
14755;DHT22;7469;50.906;6.952;2023-01-28T04:10:42;2.00;99.90
14755;DHT22;7469;50.906;6.952;2023-01-28T04:13:10;2.00;99.90
14755;DHT22;7469;50.906;6.952;2023-01-28T04:15:41;2.10;99.90
14755;DHT22;7469;50.906;6.952;2023-01-28T04:18:10;2.10;99.90
14755;DHT22;7469;50.906;6.952;2023-01-28T04:20:38;2.10;99.90
14755;DHT22;7469;50.906;6.952;2023-01-28T04:23:08;2.10;99.90
14755;DHT22;7469;50.906;6.952;2023-01-28T04:25:36;2.20;99.90
14755;DHT22;7469;50.906;6.952;2023-01-28T04:28:05;2.20;99.90
14755;DHT22;7469;50.906;6.952;2023-01-28T04:30:35;2.20;99.90
14755;DHT22;7469;50.906;6.952;2023-01-28T04:33:03;2.30;99.90
14755;DHT22;7469;50.906;6.952;2023-01-28T04:35:31;2.30;99.90
14755;DHT22;7469;50.906;6.952;2023-01-28T04:37:59;2.30;99.90
14755;DHT22;7469;50.906;6.952;2023-01-28T04:40:28;2.30;99.90
14755;DHT22;7469;50.906;6.952;2023-01-28T04:42:56;2.40;99.90
14755;DHT22;7469;50.906;6.952;2023-01-28T04:45:24;2.40;99.90
14755;DHT22;7469;50.906;6.952;2023-01-28T04:47:52;2.40;99.90
14755;DHT22;7469;50.906;6.952;2023-01-28T04:50:20;2.40;99.90
14755;DHT22;7469;50.906;6.952;2023-01-28T04:52:48;2.40;99.90
14755;DHT22;7469;50.906;6.952;2023-01-28T04:55:16;2.40;99.90
14755;DHT22;7469;50.906;6.952;2023-01-28T04:57:47;2.40;99.90
14755;DHT22;7469;50.906;6.952;2023-01-28T05:00:16;2.40;99.90
14755;DHT22;7469;50.906;6.952;2023-01-28T05:02:44;2.40;99.90
14755;DHT22;7469;50.906;6.952;2023-01-28T05:05:11;2.40;99.90
14755;DHT22;7469;50.906;6.952;2023-01-28T05:07:40;2.40;99.90
14755;DHT22;7469;50.906;6.952;2023-01-28T05:10:09;2.50;99.90
14755;DHT22;7469;50.906;6.952;2023-01-28T05:12:37;2.50;99.90
14755;DHT22;7469;50.906;6.952;2023-01-28T05:15:07;2.40;99.90
14755;DHT22;7469;50.906;6.952;2023-01-28T05:17:36;2.50;99.90
14755;DHT22;7469;50.906;6.952;2023-01-28T05:20:05;2.40;99.90
14755;DHT22;7469;50.906;6.952;2023-01-28T05:22:33;2.50;99.90
14755;DHT22;7469;50.906;6.952;2023-01-28T05:25:01;2.50;99.90
14755;DHT22;7469;50.906;6.952;2023-01-28T05:27:30;2.50;99.90
14755;DHT22;7469;50.906;6.952;2023-01-28T05:29:59;2.50;99.90
14755;DHT22;7469;50.906;6.952;2023-01-28T05:32:28;2.50;99.90
14755;DHT22;7469;50.906;6.952;2023-01-28T05:34:56;2.50;99.90
14755;DHT22;7469;50.906;6.952;2023-01-28T05:37:24;2.50;99.90
14755;DHT22;7469;50.906;6.952;2023-01-28T05:39:52;2.50;99.90
14755;DHT22;7469;50.906;6.952;2023-01-28T05:42:21;2.50;99.90
14755;DHT22;7469;50.906;6.952;2023-01-28T05:44:49;2.50;99.90
14755;DHT22;7469;50.906;6.952;2023-01-28T05:47:17;2.50;99.90
14755;DHT22;7469;50.906;6.952;2023-01-28T05:49:46;2.50;99.90
14755;DHT22;7469;50.906;6.952;2023-01-28T05:52:14;2.50;99.90
14755;DHT22;7469;50.906;6.952;2023-01-28T05:54:42;2.50;99.90
14755;DHT22;7469;50.906;6.952;2023-01-28T05:57:10;2.50;99.90
14755;DHT22;7469;50.906;6.952;2023-01-28T05:59:38;2.50;99.90
14755;DHT22;7469;50.906;6.952;2023-01-28T06:02:06;2.50;99.90
14755;DHT22;7469;50.906;6.952;2023-01-28T06:04:34;2.50;99.90
14755;DHT22;7469;50.906;6.952;2023-01-28T06:07:03;2.50;99.90
14755;DHT22;7469;50.906;6.952;2023-01-28T06:09:32;2.40;99.90
14755;DHT22;7469;50.906;6.952;2023-01-28T06:12:00;2.50;99.90
14755;DHT22;7469;50.906;6.952;2023-01-28T06:14:27;2.40;99.90
14755;DHT22;7469;50.906;6.952;2023-01-28T06:16:55;2.50;99.90
14755;DHT22;7469;50.906;6.952;2023-01-28T06:19:23;2.40;99.90
14755;DHT22;7469;50.906;6.952;2023-01-28T06:21:51;2.40;99.90
14755;DHT22;7469;50.906;6.952;2023-01-28T06:24:20;2.40;99.90
14755;DHT22;7469;50.906;6.952;2023-01-28T06:26:48;2.40;99.90
14755;DHT22;7469;50.906;6.952;2023-01-28T06:29:16;2.40;99.90
14755;DHT22;7469;50.906;6.952;2023-01-28T06:31:44;2.40;99.90
14755;DHT22;7469;50.906;6.952;2023-01-28T06:34:12;2.40;99.90
14755;DHT22;7469;50.906;6.952;2023-01-28T06:36:41;2.40;99.90
14755;DHT22;7469;50.906;6.952;2023-01-28T06:39:09;2.40;99.90
14755;DHT22;7469;50.906;6.952;2023-01-28T06:41:38;2.40;99.90
14755;DHT22;7469;50.906;6.952;2023-01-28T06:44:06;2.40;99.90
14755;DHT22;7469;50.906;6.952;2023-01-28T06:46:34;2.40;99.90
14755;DHT22;7469;50.906;6.952;2023-01-28T06:49:02;2.40;99.90
14755;DHT22;7469;50.906;6.952;2023-01-28T06:51:30;2.40;99.90
14755;DHT22;7469;50.906;6.952;2023-01-28T06:53:58;2.40;99.90
14755;DHT22;7469;50.906;6.952;2023-01-28T06:56:26;2.40;99.90
14755;DHT22;7469;50.906;6.952;2023-01-28T06:58:55;2.40;99.90
14755;DHT22;7469;50.906;6.952;2023-01-28T07:01:23;2.40;99.90
14755;DHT22;7469;50.906;6.952;2023-01-28T07:03:51;2.40;99.90
14755;DHT22;7469;50.906;6.952;2023-01-28T07:06:19;2.40;99.90
14755;DHT22;7469;50.906;6.952;2023-01-28T07:08:47;2.40;99.90
14755;DHT22;7469;50.906;6.952;2023-01-28T07:11:16;2.50;99.90
14755;DHT22;7469;50.906;6.952;2023-01-28T07:13:44;2.40;99.90
14755;DHT22;7469;50.906;6.952;2023-01-28T07:16:14;2.40;99.90
14755;DHT22;7469;50.906;6.952;2023-01-28T07:18:42;2.40;99.90
14755;DHT22;7469;50.906;6.952;2023-01-28T07:21:10;2.40;99.90
14755;DHT22;7469;50.906;6.952;2023-01-28T07:23:38;2.40;99.90
14755;DHT22;7469;50.906;6.952;2023-01-28T07:26:06;2.40;99.90
14755;DHT22;7469;50.906;6.952;2023-01-28T07:28:34;2.40;99.90
14755;DHT22;7469;50.906;6.952;2023-01-28T07:31:01;2.40;99.90
14755;DHT22;7469;50.906;6.952;2023-01-28T07:33:31;2.40;99.90
14755;DHT22;7469;50.906;6.952;2023-01-28T07:35:59;2.40;99.90
14755;DHT22;7469;50.906;6.952;2023-01-28T07:38:28;2.40;99.90
14755;DHT22;7469;50.906;6.952;2023-01-28T07:40:56;2.40;99.90
14755;DHT22;7469;50.906;6.952;2023-01-28T07:43:24;2.40;99.90
14755;DHT22;7469;50.906;6.952;2023-01-28T07:45:54;2.40;99.90
14755;DHT22;7469;50.906;6.952;2023-01-28T07:48:22;2.40;99.90
14755;DHT22;7469;50.906;6.952;2023-01-28T07:50:51;2.40;99.90
14755;DHT22;7469;50.906;6.952;2023-01-28T07:53:19;2.40;99.90
14755;DHT22;7469;50.906;6.952;2023-01-28T07:55:47;2.40;99.90
14755;DHT22;7469;50.906;6.952;2023-01-28T07:58:15;2.50;99.90
14755;DHT22;7469;50.906;6.952;2023-01-28T08:00:43;2.50;99.90
14755;DHT22;7469;50.906;6.952;2023-01-28T08:03:12;2.50;99.90
14755;DHT22;7469;50.906;6.952;2023-01-28T08:05:43;2.50;99.90
14755;DHT22;7469;50.906;6.952;2023-01-28T08:08:14;2.50;99.90
14755;DHT22;7469;50.906;6.952;2023-01-28T08:10:43;2.50;99.90
14755;DHT22;7469;50.906;6.952;2023-01-28T08:13:12;2.50;99.90
14755;DHT22;7469;50.906;6.952;2023-01-28T08:15:40;2.50;99.90
14755;DHT22;7469;50.906;6.952;2023-01-28T08:18:10;2.50;99.90
14755;DHT22;7469;50.906;6.952;2023-01-28T08:20:39;2.60;99.90
14755;DHT22;7469;50.906;6.952;2023-01-28T08:23:11;2.60;99.90
14755;DHT22;7469;50.906;6.952;2023-01-28T08:25:41;2.60;99.90
14755;DHT22;7469;50.906;6.952;2023-01-28T08:28:11;2.60;99.90
14755;DHT22;7469;50.906;6.952;2023-01-28T08:30:40;2.60;99.90
14755;DHT22;7469;50.906;6.952;2023-01-28T08:33:09;2.60;99.90
14755;DHT22;7469;50.906;6.952;2023-01-28T08:35:38;2.60;99.90
14755;DHT22;7469;50.906;6.952;2023-01-28T08:38:07;2.60;99.90
14755;DHT22;7469;50.906;6.952;2023-01-28T08:40:36;2.60;99.90
14755;DHT22;7469;50.906;6.952;2023-01-28T08:43:05;2.60;99.90
14755;DHT22;7469;50.906;6.952;2023-01-28T08:45:33;2.60;99.90
14755;DHT22;7469;50.906;6.952;2023-01-28T08:48:03;2.60;99.90
14755;DHT22;7469;50.906;6.952;2023-01-28T08:50:33;2.70;99.90
14755;DHT22;7469;50.906;6.952;2023-01-28T08:53:04;2.70;99.90
14755;DHT22;7469;50.906;6.952;2023-01-28T08:55:33;2.70;99.90
14755;DHT22;7469;50.906;6.952;2023-01-28T08:58:02;2.70;99.90
14755;DHT22;7469;50.906;6.952;2023-01-28T09:00:32;2.70;99.90
14755;DHT22;7469;50.906;6.952;2023-01-28T09:03:01;2.70;99.90
14755;DHT22;7469;50.906;6.952;2023-01-28T09:05:32;2.80;99.90
14755;DHT22;7469;50.906;6.952;2023-01-28T09:08:01;2.80;99.90
14755;DHT22;7469;50.906;6.952;2023-01-28T09:10:29;2.80;99.90
14755;DHT22;7469;50.906;6.952;2023-01-28T09:12:57;2.80;99.90
14755;DHT22;7469;50.906;6.952;2023-01-28T09:15:27;2.80;99.90
14755;DHT22;7469;50.906;6.952;2023-01-28T09:17:57;2.80;99.90
14755;DHT22;7469;50.906;6.952;2023-01-28T09:20:26;2.80;99.90
14755;DHT22;7469;50.906;6.952;2023-01-28T09:22:54;2.80;99.90
14755;DHT22;7469;50.906;6.952;2023-01-28T09:25:22;2.80;99.90
14755;DHT22;7469;50.906;6.952;2023-01-28T09:27:50;2.80;99.90
14755;DHT22;7469;50.906;6.952;2023-01-28T09:30:19;2.80;99.90
14755;DHT22;7469;50.906;6.952;2023-01-28T09:32:49;2.90;99.90
14755;DHT22;7469;50.906;6.952;2023-01-28T09:35:19;2.90;99.90
14755;DHT22;7469;50.906;6.952;2023-01-28T09:37:47;2.90;99.90
14755;DHT22;7469;50.906;6.952;2023-01-28T09:40:17;2.90;99.90
14755;DHT22;7469;50.906;6.952;2023-01-28T09:43:01;2.90;99.90
14755;DHT22;7469;50.906;6.952;2023-01-28T09:45:35;2.90;99.90
14755;DHT22;7469;50.906;6.952;2023-01-28T09:48:05;2.90;99.90
14755;DHT22;7469;50.906;6.952;2023-01-28T09:50:39;2.90;99.90
14755;DHT22;7469;50.906;6.952;2023-01-28T09:53:11;2.90;99.90
14755;DHT22;7469;50.906;6.952;2023-01-28T09:55:42;2.90;99.90
14755;DHT22;7469;50.906;6.952;2023-01-28T09:58:13;3.00;99.90
14755;DHT22;7469;50.906;6.952;2023-01-28T10:00:50;3.00;99.90
14755;DHT22;7469;50.906;6.952;2023-01-28T10:03:28;2.90;99.90
14755;DHT22;7469;50.906;6.952;2023-01-28T10:06:07;2.90;99.90
14755;DHT22;7469;50.906;6.952;2023-01-28T10:09:06;2.90;99.90
14755;DHT22;7469;50.906;6.952;2023-01-28T10:11:46;2.90;99.90
14755;DHT22;7469;50.906;6.952;2023-01-28T10:14:21;3.00;99.90
14755;DHT22;7469;50.906;6.952;2023-01-28T10:16:57;3.00;99.90
14755;DHT22;7469;50.906;6.952;2023-01-28T10:19:29;3.00;99.90
14755;DHT22;7469;50.906;6.952;2023-01-28T10:22:03;3.00;99.90
14755;DHT22;7469;50.906;6.952;2023-01-28T10:24:35;3.00;99.90
14755;DHT22;7469;50.906;6.952;2023-01-28T10:27:08;3.00;99.90
14755;DHT22;7469;50.906;6.952;2023-01-28T10:29:38;3.00;99.90
14755;DHT22;7469;50.906;6.952;2023-01-28T10:32:16;3.00;99.90
14755;DHT22;7469;50.906;6.952;2023-01-28T10:34:47;3.00;99.90
14755;DHT22;7469;50.906;6.952;2023-01-28T10:37:16;3.00;99.90
14755;DHT22;7469;50.906;6.952;2023-01-28T10:39:44;3.00;99.90
14755;DHT22;7469;50.906;6.952;2023-01-28T10:42:19;3.10;99.90
14755;DHT22;7469;50.906;6.952;2023-01-28T10:44:50;3.10;99.90
14755;DHT22;7469;50.906;6.952;2023-01-28T10:47:26;3.10;99.90
14755;DHT22;7469;50.906;6.952;2023-01-28T10:49:57;3.20;99.90
14755;DHT22;7469;50.906;6.952;2023-01-28T10:52:27;3.20;99.90
14755;DHT22;7469;50.906;6.952;2023-01-28T10:55:00;3.20;99.90
14755;DHT22;7469;50.906;6.952;2023-01-28T10:57:28;3.20;99.90
14755;DHT22;7469;50.906;6.952;2023-01-28T10:59:56;3.30;99.90
14755;DHT22;7469;50.906;6.952;2023-01-28T11:02:30;3.30;99.90
14755;DHT22;7469;50.906;6.952;2023-01-28T11:05:01;3.30;99.90
14755;DHT22;7469;50.906;6.952;2023-01-28T11:07:33;3.30;99.90
14755;DHT22;7469;50.906;6.952;2023-01-28T11:10:02;3.30;99.90
14755;DHT22;7469;50.906;6.952;2023-01-28T11:12:30;3.30;99.90
14755;DHT22;7469;50.906;6.952;2023-01-28T11:14:59;3.20;99.90
14755;DHT22;7469;50.906;6.952;2023-01-28T11:17:30;3.20;99.90
14755;DHT22;7469;50.906;6.952;2023-01-28T11:20:00;3.10;99.90
14755;DHT22;7469;50.906;6.952;2023-01-28T11:22:38;3.10;99.90
14755;DHT22;7469;50.906;6.952;2023-01-28T11:25:15;3.10;99.90
14755;DHT22;7469;50.906;6.952;2023-01-28T11:27:46;3.10;99.90
14755;DHT22;7469;50.906;6.952;2023-01-28T11:30:21;3.10;99.90
14755;DHT22;7469;50.906;6.952;2023-01-28T11:32:59;3.10;99.90
14755;DHT22;7469;50.906;6.952;2023-01-28T11:35:30;3.10;99.90
14755;DHT22;7469;50.906;6.952;2023-01-28T11:38:00;3.10;99.90
14755;DHT22;7469;50.906;6.952;2023-01-28T11:40:28;3.20;99.90
14755;DHT22;7469;50.906;6.952;2023-01-28T11:42:56;3.20;99.90
14755;DHT22;7469;50.906;6.952;2023-01-28T11:45:34;3.20;99.90
14755;DHT22;7469;50.906;6.952;2023-01-28T11:48:13;3.20;99.90
14755;DHT22;7469;50.906;6.952;2023-01-28T11:50:47;3.20;99.90
14755;DHT22;7469;50.906;6.952;2023-01-28T11:53:37;3.20;99.90
14755;DHT22;7469;50.906;6.952;2023-01-28T11:56:18;3.20;99.90
14755;DHT22;7469;50.906;6.952;2023-01-28T11:58:59;3.10;99.90
14755;DHT22;7469;50.906;6.952;2023-01-28T12:01:40;3.10;99.90
14755;DHT22;7469;50.906;6.952;2023-01-28T12:04:20;3.10;99.90
14755;DHT22;7469;50.906;6.952;2023-01-28T12:07:00;3.10;99.90
14755;DHT22;7469;50.906;6.952;2023-01-28T12:09:39;3.10;99.90
14755;DHT22;7469;50.906;6.952;2023-01-28T12:12:19;3.10;99.90
14755;DHT22;7469;50.906;6.952;2023-01-28T12:15:03;3.20;99.90
14755;DHT22;7469;50.906;6.952;2023-01-28T12:17:42;3.20;99.90
14755;DHT22;7469;50.906;6.952;2023-01-28T12:20:17;3.20;99.90
14755;DHT22;7469;50.906;6.952;2023-01-28T12:23:09;3.20;99.90
14755;DHT22;7469;50.906;6.952;2023-01-28T12:25:59;3.20;99.90
14755;DHT22;7469;50.906;6.952;2023-01-28T12:28:42;3.20;99.90
14755;DHT22;7469;50.906;6.952;2023-01-28T12:31:23;3.20;99.90
14755;DHT22;7469;50.906;6.952;2023-01-28T12:34:17;3.20;99.90
14755;DHT22;7469;50.906;6.952;2023-01-28T12:36:53;3.20;99.90
14755;DHT22;7469;50.906;6.952;2023-01-28T12:39:32;3.20;99.90
14755;DHT22;7469;50.906;6.952;2023-01-28T12:42:07;3.20;99.90
14755;DHT22;7469;50.906;6.952;2023-01-28T12:44:41;3.20;99.90
14755;DHT22;7469;50.906;6.952;2023-01-28T12:47:14;3.20;99.90
14755;DHT22;7469;50.906;6.952;2023-01-28T12:49:52;3.20;99.90
14755;DHT22;7469;50.906;6.952;2023-01-28T12:52:25;3.20;99.90
14755;DHT22;7469;50.906;6.952;2023-01-28T12:54:58;3.20;99.90
14755;DHT22;7469;50.906;6.952;2023-01-28T12:57:30;3.30;99.90
14755;DHT22;7469;50.906;6.952;2023-01-28T13:00:11;3.30;99.90
14755;DHT22;7469;50.906;6.952;2023-01-28T13:02:46;3.40;99.90
14755;DHT22;7469;50.906;6.952;2023-01-28T13:05:21;3.40;99.90
14755;DHT22;7469;50.906;6.952;2023-01-28T13:07:53;3.50;99.90
14755;DHT22;7469;50.906;6.952;2023-01-28T13:10:26;3.50;99.90
14755;DHT22;7469;50.906;6.952;2023-01-28T13:12:58;3.60;99.90
14755;DHT22;7469;50.906;6.952;2023-01-28T13:15:27;3.60;99.90
14755;DHT22;7469;50.906;6.952;2023-01-28T13:17:56;3.60;99.90
14755;DHT22;7469;50.906;6.952;2023-01-28T13:20:36;3.70;99.90
14755;DHT22;7469;50.906;6.952;2023-01-28T13:23:22;3.80;99.90
14755;DHT22;7469;50.906;6.952;2023-01-28T13:25:52;3.80;99.90
14755;DHT22;7469;50.906;6.952;2023-01-28T13:28:27;3.90;99.90
14755;DHT22;7469;50.906;6.952;2023-01-28T13:31:04;3.90;99.90
14755;DHT22;7469;50.906;6.952;2023-01-28T13:33:34;3.90;99.90
14755;DHT22;7469;50.906;6.952;2023-01-28T13:36:06;3.80;99.90
14755;DHT22;7469;50.906;6.952;2023-01-28T13:38:36;3.80;99.90
14755;DHT22;7469;50.906;6.952;2023-01-28T13:41:05;3.80;99.90
14755;DHT22;7469;50.906;6.952;2023-01-28T13:43:39;3.70;99.90
14755;DHT22;7469;50.906;6.952;2023-01-28T13:46:09;3.80;99.90
14755;DHT22;7469;50.906;6.952;2023-01-28T13:48:44;3.90;99.90
14755;DHT22;7469;50.906;6.952;2023-01-28T13:51:18;3.90;99.90
14755;DHT22;7469;50.906;6.952;2023-01-28T13:53:52;4.00;99.90
14755;DHT22;7469;50.906;6.952;2023-01-28T13:56:27;4.10;99.90
14755;DHT22;7469;50.906;6.952;2023-01-28T13:59:14;4.20;99.90
14755;DHT22;7469;50.906;6.952;2023-01-28T14:05:24;4.30;99.90
14755;DHT22;7469;50.906;6.952;2023-01-28T14:11:14;4.20;99.90
14755;DHT22;7469;50.906;6.952;2023-01-28T14:14:15;4.20;99.90
14755;DHT22;7469;50.906;6.952;2023-01-28T14:16:52;4.20;99.90
14755;DHT22;7469;50.906;6.952;2023-01-28T14:19:26;4.10;99.90
14755;DHT22;7469;50.906;6.952;2023-01-28T14:21:55;4.10;99.90
14755;DHT22;7469;50.906;6.952;2023-01-28T14:24:23;4.10;99.90
14755;DHT22;7469;50.906;6.952;2023-01-28T14:26:56;4.00;99.90
14755;DHT22;7469;50.906;6.952;2023-01-28T14:29:42;3.90;99.90
14755;DHT22;7469;50.906;6.952;2023-01-28T14:32:13;3.90;99.90
14755;DHT22;7469;50.906;6.952;2023-01-28T14:34:42;3.80;99.90
14755;DHT22;7469;50.906;6.952;2023-01-28T14:37:12;3.80;99.90
14755;DHT22;7469;50.906;6.952;2023-01-28T14:39:44;3.80;99.90
14755;DHT22;7469;50.906;6.952;2023-01-28T14:42:18;3.90;99.90
14755;DHT22;7469;50.906;6.952;2023-01-28T14:44:53;3.90;99.90
14755;DHT22;7469;50.906;6.952;2023-01-28T14:47:45;4.00;99.90
14755;DHT22;7469;50.906;6.952;2023-01-28T14:50:26;4.10;99.90
14755;DHT22;7469;50.906;6.952;2023-01-28T14:53:18;4.10;99.90
14755;DHT22;7469;50.906;6.952;2023-01-28T14:55:54;4.10;99.90
14755;DHT22;7469;50.906;6.952;2023-01-28T14:58:26;4.10;99.90
14755;DHT22;7469;50.906;6.952;2023-01-28T15:00:59;4.10;99.90
14755;DHT22;7469;50.906;6.952;2023-01-28T15:03:28;4.00;99.90
14755;DHT22;7469;50.906;6.952;2023-01-28T15:06:11;3.90;99.90
14755;DHT22;7469;50.906;6.952;2023-01-28T15:08:39;3.90;99.90
14755;DHT22;7469;50.906;6.952;2023-01-28T15:11:10;3.80;99.90
14755;DHT22;7469;50.906;6.952;2023-01-28T15:13:42;3.70;99.90
14755;DHT22;7469;50.906;6.952;2023-01-28T15:16:17;3.60;99.90
14755;DHT22;7469;50.906;6.952;2023-01-28T15:18:46;3.60;99.90
14755;DHT22;7469;50.906;6.952;2023-01-28T15:21:18;3.50;99.90
14755;DHT22;7469;50.906;6.952;2023-01-28T15:23:49;3.40;99.90
14755;DHT22;7469;50.906;6.952;2023-01-28T15:26:21;3.30;99.90
14755;DHT22;7469;50.906;6.952;2023-01-28T15:28:51;3.20;99.90
14755;DHT22;7469;50.906;6.952;2023-01-28T15:31:22;3.20;99.90
14755;DHT22;7469;50.906;6.952;2023-01-28T15:33:58;3.10;99.90
14755;DHT22;7469;50.906;6.952;2023-01-28T15:36:28;3.00;99.90
14755;DHT22;7469;50.906;6.952;2023-01-28T15:38:59;2.90;99.90
14755;DHT22;7469;50.906;6.952;2023-01-28T15:41:32;2.70;99.90
14755;DHT22;7469;50.906;6.952;2023-01-28T15:44:00;2.60;99.90
14755;DHT22;7469;50.906;6.952;2023-01-28T15:46:30;2.60;99.90
14755;DHT22;7469;50.906;6.952;2023-01-28T15:49:02;2.50;99.90
14755;DHT22;7469;50.906;6.952;2023-01-28T15:51:32;2.50;99.90
14755;DHT22;7469;50.906;6.952;2023-01-28T15:54:04;2.40;99.90
14755;DHT22;7469;50.906;6.952;2023-01-28T15:56:33;2.30;99.90
14755;DHT22;7469;50.906;6.952;2023-01-28T15:59:09;2.30;99.90
14755;DHT22;7469;50.906;6.952;2023-01-28T16:01:45;2.20;99.90
14755;DHT22;7469;50.906;6.952;2023-01-28T16:04:22;2.20;99.90
14755;DHT22;7469;50.906;6.952;2023-01-28T16:06:51;2.10;99.90
14755;DHT22;7469;50.906;6.952;2023-01-28T16:09:23;2.10;99.90
14755;DHT22;7469;50.906;6.952;2023-01-28T16:11:52;2.00;99.90
14755;DHT22;7469;50.906;6.952;2023-01-28T16:14:23;1.90;99.90
14755;DHT22;7469;50.906;6.952;2023-01-28T16:16:53;1.90;99.90
14755;DHT22;7469;50.906;6.952;2023-01-28T16:19:30;1.80;99.90
14755;DHT22;7469;50.906;6.952;2023-01-28T16:21:59;1.70;99.90
14755;DHT22;7469;50.906;6.952;2023-01-28T16:24:29;1.70;99.90
14755;DHT22;7469;50.906;6.952;2023-01-28T16:26:59;1.60;99.90
14755;DHT22;7469;50.906;6.952;2023-01-28T16:29:29;1.60;99.90
14755;DHT22;7469;50.906;6.952;2023-01-28T16:31:59;1.50;99.90
14755;DHT22;7469;50.906;6.952;2023-01-28T16:34:29;1.40;99.90
14755;DHT22;7469;50.906;6.952;2023-01-28T16:36:58;1.40;99.90
14755;DHT22;7469;50.906;6.952;2023-01-28T16:39:27;1.30;99.90
14755;DHT22;7469;50.906;6.952;2023-01-28T16:41:55;1.30;99.90
14755;DHT22;7469;50.906;6.952;2023-01-28T16:44:23;1.20;99.90